Grand Portage, Minnesota
Current Conditions -  °F | °C
As of 4:00 AM on Wednesday 22 Oct 2014 (Local Time) from CYQT Reporting Station
Clear Clear  
Wind Chill: 27°   Ceiling: Unl
Heat Index: 27°   Visibility: 15mi
Dew Point: 27°   Wind: 2mph
Humidity: 100%   Direction: NA
Pressure: 30.28"   Gusts: NA
Location:  47.96°N, 89.68°W
Report Text: CYQT 220900Z VRB02KT 15SM SKC M03/M03 A3028 RMK SLP263
Loading
Personal Weather Stations






























Interactive Weather Map
Tropical Storm Tracking
New forecast layout! Learn more

10-Day Weather Forecast

Advertisements
Track Severe Weather on mobile